Time;durP1;ratioP1;P1;durP2;ratioP2;P2;SDS_P1;SDS_P2;PMS_P1;PMS_P2;Temp;Humidity;BMP_temperature;BMP_pressure;BME280_temperature;BME280_humidity;BME280_pressure;Samples;Min_cycle;Max_cycle;Signal;HPM_P1;HPM_P2
2022/02/17 00:02:05;;;;;;;0.57;0.32;;;;;;;19.56;52.95;99233.44;5035639;28;20032;-63
2022/02/17 00:04:30;;;;;;;0.73;0.30;;;;;;;19.56;52.47;99230.72;5017438;28;20391;-64
2022/02/17 00:06:56;;;;;;;4.40;0.50;;;;;;;19.57;52.81;99225.06;5035301;28;20033;-64
2022/02/17 00:09:21;;;;;;;0.85;0.60;;;;;;;19.55;52.71;99220.91;5035124;28;20025;-63
2022/02/17 00:11:46;;;;;;;1.95;0.40;;;;;;;19.55;52.35;99218.19;5017277;28;20025;-63
2022/02/17 00:14:12;;;;;;;0.20;0.20;;;;;;;19.55;53.54;99220.91;5034983;28;20155;-64
2022/02/17 00:16:37;;;;;;;1.38;0.63;;;;;;;19.54;52.54;99211.13;5034773;28;20471;-64
2022/02/17 00:19:02;;;;;;;4.07;0.52;;;;;;;19.52;52.22;99226.78;5034873;28;20028;-63
2022/02/17 00:21:29;;;;;;;2.08;0.28;;;;;;;19.50;52.32;99240.63;5035258;28;20037;-63
2022/02/17 00:23:54;;;;;;;0.75;0.20;;;;;;;19.52;52.72;99229.50;5034776;28;20025;-63
2022/02/17 00:26:19;;;;;;;0.55;0.28;;;;;;;19.53;52.65;99242.03;5034640;28;20030;-64
2022/02/17 00:28:45;;;;;;;0.73;0.20;;;;;;;19.54;52.26;99243.72;5034860;28;20100;-63
2022/02/17 00:31:10;;;;;;;2.90;0.40;;;;;;;19.53;52.13;99231.19;5035049;28;20048;-63
2022/02/17 00:33:38;;;;;;;1.95;0.40;;;;;;;19.55;52.30;99219.03;5034638;28;20530;-64
2022/02/17 00:36:05;;;;;;;1.27;0.60;;;;;;;19.56;51.42;99219.88;5034451;28;20017;-64
2022/02/17 00:38:30;;;;;;;0.90;0.22;;;;;;;19.59;52.01;99231.13;5034055;28;20032;-63
2022/02/17 00:40:56;;;;;;;0.68;0.35;;;;;;;19.59;52.01;99236.56;5034625;28;20022;-64
2022/02/17 00:43:22;;;;;;;8.15;0.70;;;;;;;19.62;51.37;99246.13;5034203;28;20529;-64
2022/02/17 00:45:47;;;;;;;1.65;0.45;;;;;;;19.57;51.70;99248.69;5034524;28;20056;-63
2022/02/17 00:48:13;;;;;;;1.13;0.40;;;;;;;19.52;51.73;99262.94;5034794;28;20036;-63
2022/02/17 00:50:39;;;;;;;4.28;0.40;;;;;;;19.50;51.71;99248.75;5034532;28;20077;-63
2022/02/17 00:53:05;;;;;;;5.03;0.40;;;;;;;19.47;51.28;99272.81;5034176;28;20123;-64
2022/02/17 00:55:30;;;;;;;3.08;0.50;;;;;;;19.46;51.97;99263.00;5034679;28;20097;-63
2022/02/17 00:57:55;;;;;;;0.80;0.50;;;;;;;19.41;51.84;99271.00;5034597;28;20033;-63
2022/02/17 01:00:21;;;;;;;8.10;0.50;;;;;;;19.40;51.87;99285.66;5017209;28;20143;-63
2022/02/17 01:02:46;;;;;;;4.38;0.65;;;;;;;19.36;50.84;99292.53;5034441;28;20039;-63
2022/02/17 01:05:11;;;;;;;5.07;0.77;;;;;;;19.37;51.56;99248.88;5034048;28;20364;-63
2022/02/17 01:07:37;;;;;;;2.72;0.60;;;;;;;19.34;51.33;99253.91;5034236;28;20478;-64
2022/02/17 01:10:03;;;;;;;3.72;0.70;;;;;;;19.32;51.06;99292.13;5034053;28;20025;-63
2022/02/17 01:12:29;;;;;;;3.20;0.77;;;;;;;19.30;50.85;99296.13;5016395;28;20029;-63
2022/02/17 01:14:54;;;;;;;3.42;0.57;;;;;;;19.36;51.02;99316.97;5034504;28;20025;-64
2022/02/17 01:17:20;;;;;;;5.65;0.80;;;;;;;19.36;50.79;99293.38;5034499;28;20021;-63
2022/02/17 01:19:45;;;;;;;3.67;0.80;;;;;;;19.35;50.61;99307.16;5034099;28;20022;-63
2022/02/17 01:22:12;;;;;;;6.70;1.13;;;;;;;19.36;51.12;99317.81;5034009;28;20018;-63
2022/02/17 01:24:37;;;;;;;3.35;0.60;;;;;;;19.37;50.57;99334.94;5016800;28;20113;-63
2022/02/17 01:27:03;;;;;;;4.00;1.10;;;;;;;19.36;50.56;99335.97;5016467;28;20025;-63
2022/02/17 01:29:28;;;;;;;5.38;1.10;;;;;;;19.36;50.49;99355.00;5034515;28;20117;-64
2022/02/17 01:31:54;;;;;;;5.93;0.93;;;;;;;19.35;50.35;99378.59;5034078;28;20049;-63
2022/02/17 01:34:19;;;;;;;7.10;1.10;;;;;;;19.34;50.08;99327.25;5033990;28;20033;-64
2022/02/17 01:36:44;;;;;;;6.43;1.17;;;;;;;19.34;49.95;99367.97;5033974;28;20101;-64
2022/02/17 01:39:10;;;;;;;5.95;1.58;;;;;;;19.33;50.05;99374.44;5033936;28;20025;-63
2022/02/17 01:41:35;;;;;;;8.05;0.82;;;;;;;19.33;50.22;99361.69;5034049;28;20467;-63
2022/02/17 01:44:02;;;;;;;11.55;1.85;;;;;;;19.34;49.63;99406.00;5033989;28;20104;-64
2022/02/17 01:46:32;;;;;;;5.45;1.17;;;;;;;19.34;49.66;99411.41;5034002;28;20084;-63
2022/02/17 01:48:58;;;;;;;9.32;2.13;;;;;;;19.35;49.40;99410.34;5016531;28;20049;-63
2022/02/17 01:51:23;;;;;;;14.48;1.58;;;;;;;19.35;49.44;99421.22;5018618;28;20129;-64
2022/02/17 01:53:48;;;;;;;5.32;1.23;;;;;;;19.36;49.13;99425.59;5037518;28;20029;-63
2022/02/17 01:56:16;;;;;;;11.32;1.85;;;;;;;19.34;48.63;99419.56;5037457;28;20060;-64
2022/02/17 01:58:42;;;;;;;10.38;2.03;;;;;;;19.29;48.33;99438.41;5037377;28;20033;-64
2022/02/17 02:01:07;;;;;;;7.35;1.38;;;;;;;19.27;48.56;99435.06;5019644;28;20032;-63
2022/02/17 02:03:33;;;;;;;7.65;1.83;;;;;;;19.23;48.68;99447.41;5003242;28;20026;-64
2022/02/17 02:05:58;;;;;;;8.65;1.52;;;;;;;19.24;48.62;99465.34;5037190;28;20033;-63
2022/02/17 02:08:24;;;;;;;11.10;2.22;;;;;;;19.20;48.17;99451.41;5019627;28;20079;-64
2022/02/17 02:10:50;;;;;;;9.10;1.45;;;;;;;19.14;47.94;99450.41;5019524;28;20025;-63
2022/02/17 02:13:15;;;;;;;5.70;1.83;;;;;;;19.09;47.73;99463.81;5037145;28;20021;-63
2022/02/17 02:15:46;;;;;;;6.38;1.77;;;;;;;19.02;47.80;99463.00;5037343;28;20116;-63
2022/02/17 02:18:11;;;;;;;14.00;1.80;;;;;;;19.02;47.57;99460.28;5037556;28;20021;-63
2022/02/17 02:20:48;;;;;;;9.85;1.52;;;;;;;19.02;47.52;99473.84;5037459;28;20022;-63
2022/02/17 02:23:14;;;;;;;16.27;1.90;;;;;;;19.00;47.87;99477.81;5037340;28;20083;-63
2022/02/17 02:25:50;;;;;;;14.35;2.42;;;;;;;18.97;47.11;99441.09;5019071;28;20021;-63
2022/02/17 02:28:21;;;;;;;18.95;2.58;;;;;;;18.95;47.44;99485.78;5036965;28;20021;-63
2022/02/17 02:30:47;;;;;;;11.25;2.08;;;;;;;18.92;47.48;99500.63;5019430;28;20028;-64
2022/02/17 02:33:12;;;;;;;11.43;2.10;;;;;;;18.91;47.41;99504.38;5018671;28;20017;-63
2022/02/17 02:35:39;;;;;;;18.95;3.05;;;;;;;18.83;47.05;99479.38;5017604;28;20029;-63
2022/02/17 02:38:05;;;;;;;13.48;2.13;;;;;;;18.89;46.72;99514.63;5036780;28;20465;-64
2022/02/17 02:40:30;;;;;;;13.55;3.33;;;;;;;18.88;47.03;99484.97;5036484;28;20026;-64
2022/02/17 02:42:55;;;;;;;10.82;2.10;;;;;;;18.87;46.72;99513.97;5036585;28;20057;-63
2022/02/17 02:45:21;;;;;;;14.50;2.65;;;;;;;18.80;46.90;99534.91;5036465;28;20036;-66
2022/02/17 02:47:46;;;;;;;12.63;2.95;;;;;;;18.79;46.97;99521.56;5018565;28;20534;-64
2022/02/17 02:50:12;;;;;;;19.27;2.10;;;;;;;18.80;46.87;99543.03;5036259;28;20021;-63
2022/02/17 02:55:21;;;;;;;12.75;2.58;;;;;;;18.82;46.91;99548.22;5036221;28;20075;-63
2022/02/17 02:57:46;;;;;;;10.35;1.73;;;;;;;18.81;46.58;99584.56;5018724;28;20108;-63
2022/02/17 03:00:12;;;;;;;14.25;2.22;;;;;;;18.78;46.93;99580.41;5036113;28;20075;-64
2022/02/17 03:02:37;;;;;;;9.20;2.42;;;;;;;18.74;46.42;99568.31;5034715;28;20021;-63
2022/02/17 03:05:03;;;;;;;12.63;2.80;;;;;;;18.73;46.43;99573.97;5036469;28;20033;-64
2022/02/17 03:07:28;;;;;;;15.27;3.10;;;;;;;18.69;46.58;99575.41;5018863;28;20036;-63
2022/02/17 03:09:54;;;;;;;20.50;3.75;;;;;;;18.69;45.98;99591.69;5036320;28;20018;-63
2022/02/17 03:12:19;;;;;;;12.02;2.78;;;;;;;18.67;46.44;99589.19;5035835;28;20542;-64
2022/02/17 03:14:45;;;;;;;14.52;2.40;;;;;;;18.68;46.00;99609.84;5018374;28;20021;-63
2022/02/17 03:17:10;;;;;;;15.40;2.35;;;;;;;18.66;46.63;99592.94;5035777;28;20060;-63
2022/02/17 03:19:36;;;;;;;15.45;2.40;;;;;;;18.66;45.86;99584.81;5035930;28;20083;-64
2022/02/17 03:22:01;;;;;;;10.25;2.13;;;;;;;18.63;45.70;99596.09;5036518;28;20040;-64
2022/02/17 03:24:27;;;;;;;13.02;1.60;;;;;;;18.59;45.76;99613.84;5035846;28;20079;-63
2022/02/17 03:26:52;;;;;;;13.15;2.88;;;;;;;18.59;45.86;99611.13;5035921;28;20029;-63
2022/02/17 03:29:17;;;;;;;20.17;3.55;;;;;;;18.58;45.67;99631.16;5017945;28;20475;-64
2022/02/17 03:31:43;;;;;;;9.88;2.10;;;;;;;18.60;45.46;99627.19;5035560;28;20414;-64
2022/02/17 03:34:08;;;;;;;12.73;2.72;;;;;;;18.59;45.82;99651.81;5035640;28;20037;-63
2022/02/17 03:36:33;;;;;;;13.40;2.83;;;;;;;18.58;45.40;99658.28;5035498;28;20026;-63
2022/02/17 03:38:59;;;;;;;16.38;2.30;;;;;;;18.56;44.98;99654.94;5035628;28;20030;-63
2022/02/17 03:41:25;;;;;;;19.13;2.17;;;;;;;18.55;45.13;99658.69;5035440;28;20032;-64
2022/02/17 03:43:50;;;;;;;16.08;2.13;;;;;;;18.53;45.13;99655.34;5035221;28;20034;-64
2022/02/17 03:46:16;;;;;;;16.48;2.92;;;;;;;18.54;45.12;99670.56;5035564;28;20365;-64
2022/02/17 03:48:41;;;;;;;20.48;2.78;;;;;;;18.54;45.18;99681.41;5035417;28;20037;-64
2022/02/17 03:51:07;;;;;;;19.52;2.85;;;;;;;18.53;44.85;99677.06;5035666;28;20103;-63
2022/02/17 03:53:32;;;;;;;11.70;2.25;;;;;;;18.50;45.20;99701.88;5035364;28;20049;-64
2022/02/17 03:55:57;;;;;;;20.75;2.08;;;;;;;18.46;44.76;99685.16;5035229;28;20119;-64
2022/02/17 04:01:07;;;;;;;16.80;2.38;;;;;;;18.42;44.85;99702.06;5035150;28;20032;-63
2022/02/17 04:03:32;;;;;;;18.48;3.10;;;;;;;18.41;45.12;99714.78;5035177;28;20029;-64
2022/02/17 04:05:57;;;;;;;15.88;2.90;;;;;;;18.41;44.01;99708.50;5035023;28;20061;-64
2022/02/17 04:08:23;;;;;;;13.50;2.63;;;;;;;18.40;44.08;99706.81;5035411;28;20028;-63
2022/02/17 04:10:48;;;;;;;21.42;2.55;;;;;;;18.39;44.29;99721.44;5034719;28;20021;-63
2022/02/17 04:13:13;;;;;;;17.08;2.60;;;;;;;18.38;44.76;99719.75;5034409;28;20049;-63
2022/02/17 04:15:39;;;;;;;20.58;3.63;;;;;;;18.35;44.75;99741.88;5034831;28;20022;-64
2022/02/17 04:18:05;;;;;;;21.55;3.70;;;;;;;18.35;44.03;99725.59;5017498;28;20032;-63
2022/02/17 04:20:30;;;;;;;17.48;2.92;;;;;;;18.32;43.64;99742.28;5034715;28;20029;-63
2022/02/17 04:22:55;;;;;;;24.70;3.35;;;;;;;18.30;44.79;99747.06;5034544;28;20036;-63
2022/02/17 04:25:21;;;;;;;8.45;1.92;;;;;;;18.27;44.03;99729.34;5034409;28;20051;-64
2022/02/17 04:27:46;;;;;;;17.45;3.60;;;;;;;18.24;44.31;99761.44;5034333;28;20029;-63
2022/02/17 04:30:12;;;;;;;14.68;3.60;;;;;;;18.19;43.97;99742.25;5034395;28;20099;-64
2022/02/17 04:32:37;;;;;;;19.27;3.30;;;;;;;18.19;44.22;99751.22;5034503;28;20438;-64
2022/02/17 04:35:03;;;;;;;14.18;3.65;;;;;;;18.20;44.08;99784.59;5034190;28;20025;-64
2022/02/17 04:37:28;;;;;;;13.68;3.38;;;;;;;18.20;43.96;99776.47;5034046;28;20112;-63
2022/02/17 04:39:53;;;;;;;18.48;3.08;;;;;;;18.19;44.25;99774.78;5033993;28;20083;-64
2022/02/17 04:42:19;;;;;;;20.52;3.60;;;;;;;18.14;44.27;99788.13;5034144;28;20475;-64
2022/02/17 04:44:49;;;;;;;15.80;3.22;;;;;;;18.12;44.05;99782.88;5016118;28;20032;-63
2022/02/17 04:47:15;;;;;;;20.10;3.40;;;;;;;18.15;44.18;99776.22;5033708;28;20036;-64
2022/02/17 04:49:40;;;;;;;19.50;4.43;;;;;;;18.13;43.15;99800.00;4999805;28;20026;-63
2022/02/17 04:52:07;;;;;;;21.67;3.17;;;;;;;18.12;43.37;99793.72;5033570;28;20049;-63
2022/02/17 04:54:32;;;;;;;16.08;3.55;;;;;;;18.12;43.60;99790.22;5033937;28;20033;-64
2022/02/17 04:57:00;;;;;;;17.08;3.47;;;;;;;18.12;44.66;99801.06;5033861;28;20475;-64
2022/02/17 04:59:26;;;;;;;23.13;5.28;;;;;;;18.11;43.95;99802.06;5034233;28;20064;-64
2022/02/17 05:01:51;;;;;;;15.55;2.70;;;;;;;18.09;43.64;99831.25;4999749;28;20060;-63
2022/02/17 05:04:16;;;;;;;15.65;2.88;;;;;;;18.08;44.10;99822.28;5034026;28;20120;-64
2022/02/17 05:06:42;;;;;;;22.42;3.33;;;;;;;18.09;44.04;99823.13;5033877;28;20061;-63
2022/02/17 05:09:07;;;;;;;19.13;3.72;;;;;;;18.11;43.72;99831.88;5033881;28;20029;-64
2022/02/17 05:11:32;;;;;;;16.42;2.97;;;;;;;18.10;43.39;99841.03;5033697;28;20083;-64
2022/02/17 05:13:58;;;;;;;18.08;3.55;;;;;;;18.10;43.50;99830.22;5033878;28;20025;-64
2022/02/17 05:16:24;;;;;;;24.48;4.78;;;;;;;18.09;43.22;99842.91;5015947;28;20467;-63
2022/02/17 05:18:49;;;;;;;22.55;3.72;;;;;;;18.09;43.32;99829.38;5033542;28;20025;-64
2022/02/17 05:21:15;;;;;;;15.23;3.13;;;;;;;18.07;42.79;99844.16;5033910;28;20033;-64
2022/02/17 05:23:40;;;;;;;15.20;2.90;;;;;;;18.03;44.38;99841.84;5033808;28;20030;-63
2022/02/17 05:26:05;;;;;;;11.55;2.20;;;;;;;18.03;43.18;99847.28;5018094;28;20107;-63
2022/02/17 05:28:31;;;;;;;19.60;4.10;;;;;;;18.02;43.48;99856.47;5037524;28;20029;-64
2022/02/17 05:30:56;;;;;;;19.17;3.60;;;;;;;18.01;43.64;99868.31;5037365;28;20388;-63
2022/02/17 05:33:21;;;;;;;20.23;3.35;;;;;;;17.98;43.54;99866.00;5037621;28;20502;-63
2022/02/17 05:35:47;;;;;;;22.60;4.03;;;;;;;18.00;43.74;99880.22;5037643;28;20017;-64
2022/02/17 05:38:13;;;;;;;14.15;2.28;;;;;;;18.01;44.28;99868.31;5020062;28;20479;-64
2022/02/17 05:40:38;;;;;;;21.23;3.58;;;;;;;18.01;43.70;99884.59;5037406;28;20079;-64
2022/02/17 05:43:05;;;;;;;20.73;4.60;;;;;;;18.03;44.25;99912.31;5037289;28;20494;-64
2022/02/17 05:45:30;;;;;;;17.52;4.05;;;;;;;17.99;43.98;99899.38;5037329;28;20061;-64
2022/02/17 05:47:56;;;;;;;19.73;3.55;;;;;;;17.95;44.08;99909.78;5019848;28;20029;-64
2022/02/17 05:50:22;;;;;;;16.10;3.03;;;;;;;17.90;43.67;99906.81;5037285;28;20049;-64
2022/02/17 05:52:48;;;;;;;29.05;4.45;;;;;;;17.82;43.20;99901.56;5037232;28;20511;-63
2022/02/17 05:55:17;;;;;;;22.00;3.45;;;;;;;17.75;43.69;99916.94;5037197;28;20048;-64
2022/02/17 05:57:43;;;;;;;17.38;3.40;;;;;;;17.76;43.92;99910.47;5037240;28;20112;-64
2022/02/17 06:00:09;;;;;;;26.25;3.25;;;;;;;17.76;44.37;99915.06;5037120;28;20052;-64
2022/02/17 06:02:35;;;;;;;29.63;3.33;;;;;;;17.74;43.81;99914.44;5037041;28;20025;-64
2022/02/17 06:05:00;;;;;;;26.83;4.30;;;;;;;17.72;43.40;99938.19;5036960;28;20030;-64
2022/02/17 06:07:25;;;;;;;20.30;3.95;;;;;;;17.68;44.44;99931.47;5037247;28;20033;-64
2022/02/17 06:09:51;;;;;;;18.98;3.10;;;;;;;17.66;44.30;99947.09;5037081;28;20113;-64
2022/02/17 06:12:16;;;;;;;15.02;3.08;;;;;;;17.66;44.02;99947.09;5036836;28;20067;-64
2022/02/17 06:14:42;;;;;;;21.30;3.30;;;;;;;17.65;43.83;99945.41;5036685;28;20033;-64
2022/02/17 06:17:07;;;;;;;16.63;4.22;;;;;;;17.64;43.70;99952.72;5019292;28;20131;-64
2022/02/17 06:19:32;;;;;;;16.60;3.28;;;;;;;17.62;43.99;99952.03;5037115;28;20059;-64
2022/02/17 06:21:58;;;;;;;23.05;4.32;;;;;;;17.62;43.93;99946.63;5036822;28;20053;-64
2022/02/17 06:24:23;;;;;;;18.77;3.42;;;;;;;17.60;43.95;99973.06;5036570;28;20029;-64
2022/02/17 06:26:49;;;;;;;23.33;4.95;;;;;;;17.51;44.18;99949.84;5036229;28;20028;-63
2022/02/17 06:29:14;;;;;;;17.60;3.05;;;;;;;17.48;43.42;99978.16;5018536;28;20066;-64
2022/02/17 06:31:39;;;;;;;23.05;3.95;;;;;;;17.44;44.13;99976.03;5018666;28;20029;-64
2022/02/17 06:34:05;;;;;;;16.33;3.67;;;;;;;17.42;43.81;99984.34;5036522;28;20040;-64
2022/02/17 06:36:30;;;;;;;22.20;3.50;;;;;;;17.42;44.31;99989.75;5035878;28;20026;-64
2022/02/17 06:38:56;;;;;;;15.13;3.63;;;;;;;17.40;44.99;99994.53;5036266;28;20448;-64
2022/02/17 06:41:22;;;;;;;24.90;3.20;;;;;;;17.40;44.49;99990.97;5036021;28;20021;-64
2022/02/17 06:43:48;;;;;;;12.50;3.50;;;;;;;17.40;44.38;100004.50;5018107;28;20025;-64
2022/02/17 06:46:13;;;;;;;18.35;4.57;;;;;;;17.38;43.69;100012.84;5035949;28;20051;-64
2022/02/17 06:48:39;;;;;;;16.70;4.10;;;;;;;17.36;43.52;99993.22;5035911;28;20030;-64
2022/02/17 06:51:04;;;;;;;17.65;3.65;;;;;;;17.36;43.16;100023.00;5032625;28;20492;-64
2022/02/17 06:53:30;;;;;;;18.05;3.13;;;;;;;17.36;43.85;100019.47;5035656;28;20169;-64
2022/02/17 06:55:55;;;;;;;18.70;3.45;;;;;;;17.34;43.79;100046.72;5035792;28;20018;-64
2022/02/17 06:58:20;;;;;;;17.85;3.40;;;;;;;17.33;43.53;100045.06;5035655;28;20036;-64
2022/02/17 07:00:46;;;;;;;16.25;3.20;;;;;;;17.36;44.32;100051.97;5018162;28;20021;-64
2022/02/17 07:03:11;;;;;;;19.05;3.72;;;;;;;17.37;44.08;100046.34;5032913;28;20026;-64
2022/02/17 07:05:37;;;;;;;19.77;2.88;;;;;;;17.37;43.57;100056.34;5035644;28;20036;-64
2022/02/17 07:08:03;;;;;;;14.45;2.55;;;;;;;17.39;43.69;100055.09;5035841;28;20060;-63
2022/02/17 07:13:13;;;;;;;22.35;3.72;;;;;;;17.44;43.29;100084.34;5029249;28;20078;-64
2022/02/17 07:15:38;;;;;;;25.63;4.32;;;;;;;17.42;43.73;100070.13;5035553;28;20025;-63
2022/02/17 07:18:09;;;;;;;19.17;3.08;;;;;;;17.46;43.38;100082.28;5001463;28;20471;-64
2022/02/17 07:20:38;;;;;;;14.13;2.95;;;;;;;17.43;43.65;100105.16;5035234;28;20471;-64
2022/02/17 07:23:04;;;;;;;20.83;2.65;;;;;;;17.39;42.67;100098.44;5017620;28;20021;-64
2022/02/17 07:25:29;;;;;;;17.77;3.03;;;;;;;17.35;43.30;100107.13;5035041;28;20036;-64
2022/02/17 07:27:55;;;;;;;18.90;4.15;;;;;;;17.38;43.55;100113.03;5035260;28;20025;-64
2022/02/17 07:30:20;;;;;;;20.95;4.75;;;;;;;17.37;44.43;100122.16;5035024;28;20041;-63
2022/02/17 07:32:46;;;;;;;20.15;3.95;;;;;;;17.41;43.23;100122.63;5017559;28;20579;-64
2022/02/17 07:35:11;;;;;;;18.40;4.00;;;;;;;17.42;43.20;100121.56;5034910;28;20112;-64
2022/02/17 07:37:38;;;;;;;26.55;4.68;;;;;;;17.40;43.04;100126.34;5035021;28;20104;-64
2022/02/17 07:40:06;;;;;;;14.80;3.00;;;;;;;17.43;43.45;100147.63;5034941;28;20029;-64
2022/02/17 07:42:31;;;;;;;20.33;4.18;;;;;;;17.43;43.50;100131.38;5034465;28;20026;-64
2022/02/17 07:44:59;;;;;;;15.35;3.38;;;;;;;17.43;43.23;100144.94;5034893;28;20037;-64
2022/02/17 07:47:24;;;;;;;16.30;3.28;;;;;;;17.44;43.42;100152.03;5034918;28;20037;-64
2022/02/17 07:49:49;;;;;;;21.52;2.85;;;;;;;17.50;43.75;100170.22;5034327;28;20044;-64
2022/02/17 07:52:15;;;;;;;32.75;4.60;;;;;;;17.50;42.83;100175.66;5034445;28;20042;-64
2022/02/17 07:54:41;;;;;;;19.17;2.85;;;;;;;17.54;43.03;100176.13;5034725;28;20463;-64
2022/02/17 07:57:06;;;;;;;23.50;5.60;;;;;;;17.54;42.78;100178.81;5034861;28;20044;-64
2022/02/17 07:59:32;;;;;;;19.08;3.85;;;;;;;17.55;42.62;100184.06;5034848;28;20474;-64
2022/02/17 08:01:57;;;;;;;15.90;3.15;;;;;;;17.63;42.71;100180.41;5034689;28;20037;-64
2022/02/17 08:04:23;;;;;;;18.80;3.75;;;;;;;17.65;42.97;100189.16;5017047;28;20029;-64
2022/02/17 08:06:48;;;;;;;18.05;3.28;;;;;;;17.67;42.43;100182.53;5034649;28;20152;-64
2022/02/17 08:09:13;;;;;;;16.45;3.22;;;;;;;17.73;43.25;100206.16;5034367;28;20053;-64
2022/02/17 08:11:39;;;;;;;10.75;2.83;;;;;;;17.78;42.30;100201.00;5034385;28;20030;-65
2022/02/17 08:14:04;;;;;;;18.42;3.40;;;;;;;17.87;42.23;100210.69;5034480;28;20040;-64
2022/02/17 08:16:30;;;;;;;14.63;2.70;;;;;;;17.94;41.67;100217.03;5034054;28;20025;-64
2022/02/17 08:18:55;;;;;;;20.88;3.55;;;;;;;17.97;42.05;100213.94;5034099;28;20025;-64
2022/02/17 08:21:21;;;;;;;16.05;2.15;;;;;;;18.12;42.20;100213.06;5034285;28;20025;-64
2022/02/17 08:23:47;;;;;;;17.60;3.03;;;;;;;18.14;41.55;100221.84;5016307;28;20475;-64
2022/02/17 08:26:13;;;;;;;28.13;4.03;;;;;;;18.08;42.05;100220.72;5034415;28;20501;-64
2022/02/17 08:28:38;;;;;;;34.50;4.53;;;;;;;18.09;41.87;100245.97;5033927;28;20029;-64
2022/02/17 08:31:04;;;;;;;21.80;3.92;;;;;;;18.12;42.03;100237.47;5034308;28;20025;-64
2022/02/17 08:33:29;;;;;;;17.27;2.97;;;;;;;18.18;42.09;100250.22;5034080;28;20037;-64
2022/02/17 08:35:54;;;;;;;20.20;3.38;;;;;;;18.16;41.04;100238.75;5032315;28;20383;-64
2022/02/17 08:38:20;;;;;;;22.55;2.15;;;;;;;18.44;41.01;100235.06;5024087;28;20049;-65
2022/02/17 08:40:45;;;;;;;18.92;3.90;;;;;;;18.43;40.93;100259.66;5022718;28;20018;-64
2022/02/17 08:43:10;;;;;;;22.55;3.15;;;;;;;18.48;40.69;100273.53;5033843;28;20021;-64
2022/02/17 08:45:40;;;;;;;15.82;2.67;;;;;;;18.61;41.04;100273.66;5033991;28;20053;-64
2022/02/17 08:48:06;;;;;;;19.85;2.95;;;;;;;18.60;41.21;100269.25;5033939;28;20033;-64
2022/02/17 08:50:32;;;;;;;20.95;4.25;;;;;;;18.61;40.48;100251.94;5014534;28;20387;-64
2022/02/17 08:52:57;;;;;;;14.05;2.78;;;;;;;18.67;40.77;100266.59;5015508;28;20049;-64
2022/02/17 08:55:23;;;;;;;10.82;2.67;;;;;;;18.64;40.94;100281.41;5034025;28;20479;-64
2022/02/17 08:57:49;;;;;;;15.07;3.13;;;;;;;18.62;40.45;100269.88;5033982;28;20064;-64
2022/02/17 09:00:15;;;;;;;13.85;2.42;;;;;;;18.84;40.11;100292.44;5016094;28;20037;-64
2022/02/17 09:02:41;;;;;;;18.42;3.80;;;;;;;18.95;39.67;100284.59;5033860;28;20028;-64
2022/02/17 09:05:07;;;;;;;12.82;3.63;;;;;;;19.26;39.45;100296.94;5016451;28;20029;-64
2022/02/17 09:07:32;;;;;;;25.38;4.65;;;;;;;19.34;39.54;100299.50;5033727;28;20036;-64
2022/02/17 09:09:58;;;;;;;16.27;3.25;;;;;;;19.78;39.30;100294.56;5018939;28;20029;-64
2022/02/17 09:12:23;;;;;;;17.48;3.20;;;;;;;19.58;39.62;100299.06;5028342;28;20025;-64
2022/02/17 09:14:48;;;;;;;22.95;2.97;;;;;;;19.63;39.98;100313.72;5016137;28;20047;-64
2022/02/17 09:17:14;;;;;;;18.60;3.63;;;;;;;19.80;39.57;100319.66;5033557;28;20061;-64
2022/02/17 09:19:39;;;;;;;13.77;3.33;;;;;;;19.99;39.10;100291.72;5016025;28;20025;-64
2022/02/17 09:22:05;;;;;;;12.65;2.70;;;;;;;20.29;38.37;100304.03;5033869;28;20037;-64
2022/02/17 09:24:30;;;;;;;15.90;2.63;;;;;;;20.46;38.41;100322.69;5015963;28;20053;-64
2022/02/17 09:26:56;;;;;;;12.82;2.50;;;;;;;20.71;38.07;100334.66;5013834;28;20558;-64
2022/02/17 09:29:21;;;;;;;16.88;3.08;;;;;;;20.76;38.03;100332.16;5013875;28;20141;-64
2022/02/17 09:31:46;;;;;;;13.07;2.30;;;;;;;20.75;37.94;100333.19;5013763;28;20033;-64
2022/02/17 09:34:12;;;;;;;16.63;2.65;;;;;;;21.01;38.38;100330.50;5013652;28;20057;-64
2022/02/17 09:36:38;;;;;;;16.17;1.98;;;;;;;21.39;37.41;100334.28;4995919;28;20046;-64
2022/02/17 09:39:04;;;;;;;11.75;3.80;;;;;;;21.82;37.38;100351.00;5013250;28;20024;-64
2022/02/17 09:41:30;;;;;;;11.68;2.33;;;;;;;22.17;36.04;100343.34;5013229;28;20100;-64
2022/02/17 09:44:06;;;;;;;19.13;2.83;;;;;;;22.72;35.50;100352.78;5013060;28;20038;-65
2022/02/17 09:46:33;;;;;;;12.95;2.15;;;;;;;22.84;35.11;100361.91;4995478;28;20033;-64
2022/02/17 09:49:01;;;;;;;12.40;3.28;;;;;;;22.83;36.00;100371.19;5013179;28;20034;-64
2022/02/17 09:51:31;;;;;;;12.05;2.05;;;;;;;22.51;35.85;100366.69;5013362;28;20060;-65
2022/02/17 09:53:58;;;;;;;11.63;2.45;;;;;;;22.13;36.20;100366.66;5012933;28;20407;-64
2022/02/17 09:56:24;;;;;;;12.52;1.80;;;;;;;22.30;35.32;100384.25;4995658;28;20017;-64
2022/02/17 09:58:53;;;;;;;15.65;2.00;;;;;;;21.91;35.17;100387.09;5013116;28;20480;-64
2022/02/17 10:01:20;;;;;;;11.13;1.92;;;;;;;22.33;34.79;100396.63;5013137;28;20132;-64
2022/02/17 10:03:46;;;;;;;8.50;2.75;;;;;;;22.61;34.23;100406.13;4995784;28;20030;-64
2022/02/17 10:06:14;;;;;;;9.23;1.90;;;;;;;22.68;34.06;100400.69;5012875;28;20553;-64
2022/02/17 10:08:40;;;;;;;8.88;2.08;;;;;;;23.59;33.57;100392.91;4995559;28;20120;-64
2022/02/17 10:11:08;;;;;;;6.47;2.10;;;;;;;24.08;32.87;100402.91;4995948;28;20028;-64
2022/02/17 10:13:34;;;;;;;5.90;2.10;;;;;;;24.54;33.20;100396.94;5016413;28;20022;-64
2022/02/17 10:16:00;;;;;;;8.32;1.80;;;;;;;24.81;33.00;100414.72;5016683;28;20071;-64
2022/02/17 10:18:30;;;;;;;6.80;2.00;;;;;;;24.08;33.16;100411.13;5016339;28;20029;-64
2022/02/17 10:21:07;;;;;;;16.42;1.63;;;;;;;23.92;33.04;100398.06;4998944;28;20053;-64
2022/02/17 10:23:46;;;;;;;13.40;1.88;;;;;;;24.80;32.12;100413.03;5016512;28;20121;-64
2022/02/17 10:26:19;;;;;;;10.25;2.67;;;;;;;24.99;31.99;100411.06;5016006;28;20028;-64
2022/02/17 10:28:52;;;;;;;8.68;1.95;;;;;;;25.07;32.35;100418.97;5016211;28;20040;-64
2022/02/17 10:31:21;;;;;;;;;;;;;;;24.63;32.64;100434.72;5016570;28;20033;-64
2022/02/17 10:33:52;;;;;;;7.65;1.63;;;;;;;24.14;33.00;100434.91;5016325;28;20334;-64
2022/02/17 10:36:34;;;;;;;9.27;2.03;;;;;;;25.10;31.89;100418.53;5016306;28;20026;-64
2022/02/17 10:39:12;;;;;;;7.13;2.10;;;;;;;24.63;32.02;100440.19;5015979;28;20030;-64
2022/02/17 10:41:48;;;;;;;6.88;2.17;;;;;;;25.26;31.31;100428.81;5016029;28;20030;-64
2022/02/17 10:44:15;;;;;;;7.20;2.13;;;;;;;24.78;31.76;100454.34;5015847;28;20044;-64
2022/02/17 10:46:41;;;;;;;7.97;2.00;;;;;;;24.31;31.81;100452.41;5015719;28;20526;-64
2022/02/17 10:49:17;;;;;;;9.50;2.60;;;;;;;23.76;31.94;100468.69;5016203;28;20030;-64
2022/02/17 10:51:43;;;;;;;10.68;1.48;;;;;;;23.91;32.08;100472.97;5015888;28;20029;-64
2022/02/17 10:54:09;;;;;;;5.85;2.03;;;;;;;24.56;31.14;100461.38;5016203;28;20029;-64
2022/02/17 10:56:36;;;;;;;9.02;2.60;;;;;;;25.03;30.67;100467.09;5015818;28;20026;-64
2022/02/17 10:59:04;;;;;;;8.82;1.88;;;;;;;25.22;30.65;100476.94;5015918;28;20037;-65
2022/02/17 11:01:30;;;;;;;7.82;1.50;;;;;;;24.88;31.31;100468.34;5015480;28;20080;-64
2022/02/17 11:03:55;;;;;;;4.72;1.55;;;;;;;24.21;31.70;100484.91;5015727;28;20026;-64
2022/02/17 11:06:21;;;;;;;10.98;2.08;;;;;;;23.59;31.78;100480.44;5015563;28;20025;-65
2022/02/17 11:08:49;;;;;;;9.20;1.45;;;;;;;23.56;31.69;100492.63;5015697;28;20068;-65
2022/02/17 11:11:15;;;;;;;7.65;1.23;;;;;;;23.71;30.89;100490.41;4981731;28;20030;-64
2022/02/17 11:13:48;;;;;;;5.88;1.02;;;;;;;23.08;32.09;100497.75;5015684;28;20032;-64
2022/02/17 11:16:15;;;;;;;2.75;1.20;;;;;;;22.71;32.07;100498.56;5015351;28;20029;-65
2022/02/17 11:18:41;;;;;;;6.57;1.30;;;;;;;22.71;31.95;100493.09;5015565;28;20038;-65
2022/02/17 11:21:07;;;;;;;7.80;1.42;;;;;;;22.24;32.50;100516.09;5015290;28;20069;-65
2022/02/17 11:23:36;;;;;;;8.23;1.50;;;;;;;21.94;31.89;100506.69;5014049;28;20435;-65
2022/02/17 11:26:03;;;;;;;4.97;1.27;;;;;;;22.55;31.04;100499.84;5014763;28;20025;-64
2022/02/17 11:28:33;;;;;;;5.75;1.00;;;;;;;22.84;30.49;100500.38;5015337;28;20064;-64